VXP398 KCHS-KMCO
Flight info
| Callsign | VXP398 |
|---|---|
| Flight time | N/A |
| Altitude | 36000 |
| Route | LGRHD3 GIPPL Q85 LPERD GTOUT1 |
| Aircraft | B738/M-SDE2E3FGHIRWXY/LB1 |
Departure
| Time | 2026-04-25 16:29 |
|---|---|
| Airport | Charleston International Airport (KCHS) |
Arrival
| Time | N/A |
|---|---|
| Airport | Orlando International Airport (KMCO) |
| Time | Latitude | Longitude | Altitude | Speed | Heading |
|---|---|---|---|---|---|
| 2026-04-25 16:01 | 32.88607 | -80.03727 | 37 ft | 0 kts | 255° |
| 2026-04-25 16:13 | 32.88608 | -80.03724 | 37 ft | 2 kts | 254° |
| 2026-04-25 16:14 | 32.88613 | -80.03707 | 37 ft | 2 kts | 248° |
| 2026-04-25 16:14 | 32.88618 | -80.03690 | 37 ft | 2 kts | 251° |
| 2026-04-25 16:14 | 32.88623 | -80.03675 | 37 ft | 1 kts | 249° |
| 2026-04-25 16:14 | 32.88629 | -80.03663 | 37 ft | 1 kts | 202° |
| 2026-04-25 16:15 | 32.88643 | -80.03661 | 37 ft | 2 kts | 187° |
| 2026-04-25 16:15 | 32.88658 | -80.03657 | 37 ft | 2 kts | 193° |
| 2026-04-25 16:15 | 32.88673 | -80.03654 | 37 ft | 2 kts | 190° |
| 2026-04-25 16:15 | 32.88685 | -80.03651 | 38 ft | 1 kts | 211° |
| 2026-04-25 16:16 | 32.88691 | -80.03640 | 38 ft | 2 kts | 264° |
| 2026-04-25 16:16 | 32.88692 | -80.03628 | 38 ft | 1 kts | 287° |
| 2026-04-25 16:16 | 32.88685 | -80.03619 | 38 ft | 2 kts | 342° |
| 2026-04-25 16:16 | 32.88673 | -80.03615 | 37 ft | 1 kts | 326° |
| 2026-04-25 16:17 | 32.88668 | -80.03605 | 37 ft | 2 kts | 268° |
| 2026-04-25 16:17 | 32.88668 | -80.03590 | 37 ft | 0 kts | 278° |
| 2026-04-25 16:17 | 32.88668 | -80.03586 | 37 ft | 0 kts | 281° |
| 2026-04-25 16:20 | 32.88668 | -80.03588 | 37 ft | 1 kts | 281° |
| 2026-04-25 16:21 | 32.88673 | -80.03609 | 37 ft | 5 kts | 292° |
| 2026-04-25 16:21 | 32.88710 | -80.03645 | 38 ft | 9 kts | 343° |
| 2026-04-25 16:21 | 32.88755 | -80.03709 | 39 ft | 13 kts | 275° |
| 2026-04-25 16:21 | 32.88726 | -80.03828 | 38 ft | 16 kts | 239° |
| 2026-04-25 16:22 | 32.88650 | -80.03926 | 37 ft | 16 kts | 222° |
| 2026-04-25 16:22 | 32.88663 | -80.04033 | 37 ft | 14 kts | 316° |
| 2026-04-25 16:22 | 32.88655 | -80.04138 | 37 ft | 14 kts | 231° |
| 2026-04-25 16:22 | 32.88590 | -80.04236 | 36 ft | 15 kts | 232° |
| 2026-04-25 16:23 | 32.88521 | -80.04340 | 35 ft | 16 kts | 231° |
| 2026-04-25 16:23 | 32.88485 | -80.04463 | 34 ft | 16 kts | 279° |
| 2026-04-25 16:23 | 32.88515 | -80.04590 | 34 ft | 16 kts | 314° |
| 2026-04-25 16:23 | 32.88632 | -80.04659 | 37 ft | 21 kts | 335° |
| 2026-04-25 16:24 | 32.88787 | -80.04676 | 39 ft | 25 kts | 23° |
| 2026-04-25 16:24 | 32.88953 | -80.04587 | 43 ft | 26 kts | 24° |
| 2026-04-25 16:24 | 32.89119 | -80.04496 | 48 ft | 25 kts | 24° |
| 2026-04-25 16:24 | 32.89292 | -80.04458 | 51 ft | 25 kts | 0° |
| 2026-04-25 16:25 | 32.89476 | -80.04456 | 53 ft | 27 kts | 1° |
| 2026-04-25 16:25 | 32.89603 | -80.04453 | 55 ft | 27 kts | 1° |
| 2026-04-25 16:25 | 32.89870 | -80.04446 | 56 ft | 30 kts | 1° |
| 2026-04-25 16:25 | 32.90092 | -80.04443 | 56 ft | 33 kts | 1° |
| 2026-04-25 16:26 | 32.90322 | -80.04436 | 56 ft | 32 kts | 1° |
| 2026-04-25 16:26 | 32.90491 | -80.04496 | 56 ft | 17 kts | 328° |
| 2026-04-25 16:26 | 32.90593 | -80.04572 | 56 ft | 17 kts | 327° |
| 2026-04-25 16:26 | 32.90693 | -80.04649 | 56 ft | 17 kts | 327° |
| 2026-04-25 16:27 | 32.90795 | -80.04729 | 56 ft | 17 kts | 327° |
| 2026-04-25 16:27 | 32.90897 | -80.04806 | 56 ft | 17 kts | 327° |
| 2026-04-25 16:27 | 32.90997 | -80.04882 | 58 ft | 16 kts | 327° |
| 2026-04-25 16:27 | 32.91092 | -80.04953 | 59 ft | 15 kts | 327° |
| 2026-04-25 16:28 | 32.91190 | -80.04984 | 59 ft | 18 kts | 34° |
| 2026-04-25 16:28 | 32.91265 | -80.04864 | 58 ft | 13 kts | 57° |
| 2026-04-25 16:28 | 32.91258 | -80.04776 | 58 ft | 14 kts | 139° |
| 2026-04-25 16:28 | 32.90907 | -80.04511 | 56 ft | 117 kts | 147° |
| 2026-04-25 16:29 | 32.89940 | -80.03785 | 217 ft | 201 kts | 149° |
| 2026-04-25 16:29 | 32.88641 | -80.02844 | 739 ft | 227 kts | 150° |
| 2026-04-25 16:29 | 32.87341 | -80.01975 | 1187 ft | 200 kts | 153° |
| 2026-04-25 16:29 | 32.86134 | -80.01244 | 1501 ft | 209 kts | 155° |
| 2026-04-25 16:30 | 32.84701 | -80.00481 | 1867 ft | 233 kts | 158° |
| 2026-04-25 16:30 | 32.83090 | -79.99890 | 2406 ft | 258 kts | 176° |
| 2026-04-25 16:30 | 32.81359 | -80.00361 | 3597 ft | 265 kts | 211° |
| 2026-04-25 16:30 | 32.80159 | -80.01920 | 4908 ft | 267 kts | 243° |
| 2026-04-25 16:31 | 32.79525 | -80.03979 | 6151 ft | 272 kts | 254° |
| 2026-04-25 16:31 | 32.78983 | -80.06122 | 7403 ft | 277 kts | 251° |
| 2026-04-25 16:31 | 32.78261 | -80.08100 | 8645 ft | 278 kts | 243° |
| 2026-04-25 16:31 | 32.77232 | -80.10012 | 9838 ft | 282 kts | 234° |
| 2026-04-25 16:32 | 32.75895 | -80.11780 | 10777 ft | 297 kts | 226° |
| 2026-04-25 16:32 | 32.74294 | -80.13457 | 11566 ft | 316 kts | 221° |
| 2026-04-25 16:32 | 32.73873 | -80.13867 | 11754 ft | 320 kts | 221° |
| 2026-04-25 16:32 | 32.73780 | -80.13957 | 11795 ft | 321 kts | 221° |
| 2026-04-25 16:33 | 32.73083 | -80.14620 | 12037 ft | 331 kts | 220° |
| 2026-04-25 16:34 | 32.71220 | -80.16363 | 12751 ft | 350 kts | 220° |
| 2026-04-25 16:34 | 32.69275 | -80.18179 | 13652 ft | 361 kts | 221° |
| 2026-04-25 16:34 | 32.67288 | -80.20049 | 14796 ft | 364 kts | 221° |
| 2026-04-25 16:34 | 32.65319 | -80.21912 | 15841 ft | 369 kts | 221° |
| 2026-04-25 16:35 | 32.63287 | -80.23846 | 16829 ft | 374 kts | 221° |
| 2026-04-25 16:35 | 32.61253 | -80.25781 | 17788 ft | 379 kts | 221° |
| 2026-04-25 16:35 | 32.59182 | -80.27751 | 18712 ft | 384 kts | 221° |
| 2026-04-25 16:35 | 32.57017 | -80.29649 | 19553 ft | 391 kts | 217° |
| 2026-04-25 16:36 | 32.54729 | -80.31425 | 20379 ft | 397 kts | 214° |
| 2026-04-25 16:36 | 32.53949 | -80.32004 | 20662 ft | 399 kts | 214° |
| 2026-04-25 16:36 | 32.49935 | -80.34910 | 21983 ft | 409 kts | 213° |
| 2026-04-25 16:36 | 32.47485 | -80.36673 | 22751 ft | 414 kts | 213° |
| 2026-04-25 16:37 | 32.44990 | -80.38480 | 23512 ft | 419 kts | 214° |
| 2026-04-25 16:37 | 32.42477 | -80.40311 | 24209 ft | 424 kts | 214° |
| 2026-04-25 16:37 | 32.39972 | -80.42146 | 24919 ft | 429 kts | 214° |
| 2026-04-25 16:37 | 32.37402 | -80.44038 | 25623 ft | 433 kts | 214° |
| 2026-04-25 16:38 | 32.34826 | -80.45933 | 26317 ft | 437 kts | 214° |
| 2026-04-25 16:38 | 32.32205 | -80.47867 | 26950 ft | 442 kts | 214° |
| 2026-04-25 16:38 | 32.29576 | -80.49805 | 27507 ft | 449 kts | 214° |
| 2026-04-25 16:38 | 32.26906 | -80.51771 | 28104 ft | 454 kts | 214° |
| 2026-04-25 16:39 | 32.24216 | -80.53754 | 28717 ft | 458 kts | 214° |
| 2026-04-25 16:39 | 32.21491 | -80.55760 | 29292 ft | 463 kts | 215° |
| 2026-04-25 16:39 | 32.18720 | -80.57800 | 29936 ft | 466 kts | 215° |
| 2026-04-25 16:39 | 32.15980 | -80.59814 | 30731 ft | 464 kts | 215° |
| 2026-04-25 16:40 | 32.13243 | -80.61824 | 31613 ft | 460 kts | 215° |
| 2026-04-25 16:40 | 32.10558 | -80.63792 | 32473 ft | 456 kts | 215° |
| 2026-04-25 16:40 | 32.07854 | -80.65774 | 33280 ft | 453 kts | 215° |
| 2026-04-25 16:40 | 32.05184 | -80.67728 | 34038 ft | 452 kts | 215° |
| 2026-04-25 16:41 | 32.02510 | -80.69687 | 34752 ft | 451 kts | 215° |
| 2026-04-25 16:41 | 32.00742 | -80.70982 | 35222 ft | 451 kts | 215° |
| 2026-04-25 16:41 | 31.94520 | -80.75535 | 35911 ft | 447 kts | 215° |
| 2026-04-25 16:42 | 31.89275 | -80.79369 | 35902 ft | 440 kts | 215° |
| 2026-04-25 16:42 | 31.84100 | -80.83153 | 35905 ft | 441 kts | 215° |
| 2026-04-25 16:43 | 31.78875 | -80.86964 | 35898 ft | 441 kts | 215° |
| 2026-04-25 16:43 | 31.73645 | -80.90771 | 35897 ft | 440 kts | 215° |
| 2026-04-25 16:44 | 31.68455 | -80.94544 | 35904 ft | 441 kts | 215° |
| 2026-04-25 16:44 | 31.63249 | -80.98323 | 35905 ft | 440 kts | 215° |
| 2026-04-25 16:45 | 31.58018 | -81.02116 | 35904 ft | 441 kts | 215° |
| 2026-04-25 16:45 | 31.52821 | -81.05878 | 35900 ft | 440 kts | 215° |
| 2026-04-25 16:46 | 31.47595 | -81.09655 | 35901 ft | 441 kts | 215° |
| 2026-04-25 16:46 | 31.43214 | -81.12822 | 35904 ft | 442 kts | 215° |
| 2026-04-25 16:47 | 31.37020 | -81.17270 | 35904 ft | 460 kts | 214° |
| 2026-04-25 16:47 | 31.34198 | -81.19113 | 35914 ft | 472 kts | 211° |
| 2026-04-25 16:47 | 31.31233 | -81.20910 | 35915 ft | 482 kts | 210° |
| 2026-04-25 16:48 | 31.25198 | -81.24393 | 35921 ft | 484 kts | 209° |
| 2026-04-25 16:48 | 31.18981 | -81.27348 | 35924 ft | 488 kts | 197° |
| 2026-04-25 16:49 | 31.12197 | -81.28445 | 35842 ft | 494 kts | 185° |
| 2026-04-25 16:49 | 31.11025 | -81.28506 | 35710 ft | 493 kts | 184° |
| 2026-04-25 16:50 | 31.09539 | -81.28552 | 35476 ft | 492 kts | 183° |
| 2026-04-25 16:50 | 31.06145 | -81.28563 | 34768 ft | 474 kts | 181° |
| 2026-04-25 16:50 | 31.02925 | -81.28504 | 33901 ft | 452 kts | 181° |
| 2026-04-25 16:51 | 30.99835 | -81.28427 | 33064 ft | 438 kts | 181° |
| 2026-04-25 16:51 | 30.96793 | -81.28355 | 32304 ft | 438 kts | 181° |
| 2026-04-25 16:51 | 30.93761 | -81.28298 | 31411 ft | 443 kts | 181° |
| 2026-04-25 16:51 | 30.91667 | -81.28267 | 30704 ft | 448 kts | 181° |
| 2026-04-25 16:52 | 30.87433 | -81.28223 | 29934 ft | 468 kts | 181° |
| 2026-04-25 16:52 | 30.84100 | -81.28201 | 29923 ft | 482 kts | 181° |
| 2026-04-25 16:52 | 30.80726 | -81.28185 | 29926 ft | 496 kts | 181° |
| 2026-04-25 16:52 | 30.77247 | -81.28172 | 29924 ft | 502 kts | 181° |
| 2026-04-25 16:53 | 30.66750 | -81.28137 | 29932 ft | 502 kts | 181° |
| 2026-04-25 16:54 | 30.59764 | -81.28115 | 29937 ft | 501 kts | 181° |
| 2026-04-25 16:54 | 30.52757 | -81.27796 | 29936 ft | 502 kts | 178° |
| 2026-04-25 16:55 | 30.47005 | -81.27314 | 29898 ft | 504 kts | 176° |